Fort Simpson, Canada
Current Conditions -  °F | °C
As of 12:00 PM on Thursday 18 Dec 2014 (Local Time) from CYFS Reporting Station
Scattered Clouds Scattered Clouds  
Wind Chill: -15°   Ceiling: Unl
Heat Index: -15°   Visibility: 15mi
Dew Point: -22°   Wind: 0mph
Humidity: 70%   Direction: NA
Pressure: 29.77"   Gusts: NA
Location:  61.86°N, 121.35°W
Report Text: CYFS 181900Z 00000KT 15SM FEW085 SCT210 M26/M30 A2977 RMK AC2CI1 SLP106
Loading
Personal Weather Stations






























Interactive Weather Map New forecast layout! Learn more

10-Day Weather Forecast

Advertisements
Track Severe Weather on mobile